Time;durP1;ratioP1;P1;durP2;ratioP2;P2;SDS_P1;SDS_P2;PMS_P1;PMS_P2;Temp;Humidity;BMP_temperature;BMP_pressure;BME280_temperature;BME280_humidity;BME280_pressure;Samples;Min_cycle;Max_cycle;Signal;HPM_P1;HPM_P2
2021/09/01 00:01:02;;;;;;;18.92;9.90;;;13.00;99.90;;;;;;5114260;28;20051;-72
2021/09/01 00:03:29;;;;;;;16.75;10.07;;;13.00;99.90;;;;;;5114103;28;20097;-72
2021/09/01 00:05:56;;;;;;;19.35;9.55;;;12.90;99.90;;;;;;5113834;28;20039;-72
2021/09/01 00:08:23;;;;;;;16.10;10.13;;;12.80;99.90;;;;;;5112672;28;20088;-73
2021/09/01 00:10:50;;;;;;;17.63;10.00;;;12.90;99.90;;;;;;5114139;28;20051;-72
2021/09/01 00:13:17;;;;;;;16.63;9.38;;;12.90;99.90;;;;;;5114073;28;20453;-72
2021/09/01 00:15:45;;;;;;;16.25;9.50;;;12.80;99.90;;;;;;5114391;28;20044;-70
2021/09/01 00:18:12;;;;;;;15.82;10.02;;;12.80;99.90;;;;;;5113294;28;20066;-71
2021/09/01 00:20:39;;;;;;;15.07;9.50;;;12.80;99.90;;;;;;5112185;28;20457;-72
2021/09/01 00:23:06;;;;;;;17.20;9.52;;;12.80;99.90;;;;;;5113310;28;20051;-73
2021/09/01 00:25:34;;;;;;;18.23;9.95;;;12.80;99.90;;;;;;5113429;28;20052;-72
2021/09/01 00:28:01;;;;;;;18.38;10.27;;;12.80;99.90;;;;;;5112300;28;20120;-72
2021/09/01 00:30:28;;;;;;;14.18;9.25;;;12.80;99.90;;;;;;5114154;28;20484;-73
2021/09/01 00:32:56;;;;;;;14.93;8.77;;;12.80;99.90;;;;;;5113610;28;20074;-71
2021/09/01 00:35:23;;;;;;;14.38;9.52;;;12.70;99.90;;;;;;5113241;28;20475;-72
2021/09/01 00:37:50;;;;;;;17.45;9.98;;;12.70;99.90;;;;;;5112913;28;20150;-72
2021/09/01 00:40:17;;;;;;;17.70;10.38;;;12.70;99.90;;;;;;5113899;28;20147;-71
2021/09/01 00:42:44;;;;;;;21.85;9.88;;;12.60;99.90;;;;;;5112947;28;20148;-71
2021/09/01 00:45:12;;;;;;;22.25;10.95;;;12.50;99.90;;;;;;5113292;28;20172;-72
2021/09/01 00:47:40;;;;;;;20.27;10.88;;;12.60;99.90;;;;;;5112730;28;20108;-73
2021/09/01 00:50:11;;;;;;;18.40;10.45;;;12.60;99.90;;;;;;5112630;28;20107;-72
2021/09/01 00:52:41;;;;;;;16.88;10.30;;;12.60;99.90;;;;;;5113269;28;20051;-72
2021/09/01 00:55:11;;;;;;;16.65;10.13;;;12.50;99.90;;;;;;5113456;28;20101;-72
2021/09/01 00:57:40;;;;;;;19.95;10.70;;;12.50;99.90;;;;;;5112693;28;20052;-73
2021/09/01 01:00:10;;;;;;;21.98;12.93;;;12.50;99.90;;;;;;5113105;28;20110;-72
2021/09/01 01:02:37;;;;;;;32.70;16.75;;;12.40;99.90;;;;;;5113089;28;20059;-73
2021/09/01 01:05:04;;;;;;;21.95;11.60;;;12.30;99.90;;;;;;5113349;28;20096;-72
2021/09/01 01:07:33;;;;;;;19.55;10.73;;;12.40;99.90;;;;;;5112773;28;20507;-71
2021/09/01 01:10:00;;;;;;;19.08;11.32;;;12.30;99.90;;;;;;5112731;28;20052;-71
2021/09/01 01:12:27;;;;;;;18.15;10.80;;;12.30;99.90;;;;;;5113469;28;20051;-73
2021/09/01 01:14:54;;;;;;;22.17;11.02;;;12.30;99.90;;;;;;5113045;28;20047;-72
2021/09/01 01:17:23;;;;;;;17.60;10.45;;;12.20;99.90;;;;;;5113141;28;20491;-72
2021/09/01 01:19:52;;;;;;;19.70;10.38;;;12.30;99.90;;;;;;5112574;28;20588;-71
2021/09/01 01:22:21;;;;;;;15.77;9.48;;;12.30;99.90;;;;;;5113379;28;20051;-73
2021/09/01 01:24:51;;;;;;;14.50;9.10;;;12.30;99.90;;;;;;5112771;28;20116;-72
2021/09/01 01:27:25;;;;;;;15.45;8.02;;;12.30;99.90;;;;;;5112517;28;20044;-72
2021/09/01 01:29:53;;;;;;;14.35;9.43;;;12.20;99.90;;;;;;5112608;28;20058;-72
2021/09/01 01:32:20;;;;;;;19.33;10.02;;;12.10;99.90;;;;;;5112750;28;20069;-71
2021/09/01 01:34:47;;;;;;;16.23;9.50;;;12.10;99.90;;;;;;5113324;28;20056;-71
2021/09/01 01:37:14;;;;;;;16.77;9.80;;;12.10;99.90;;;;;;5112485;28;20100;-71
2021/09/01 01:39:41;;;;;;;18.65;10.50;;;12.00;99.90;;;;;;5112579;28;20048;-72
2021/09/01 01:42:08;;;;;;;17.05;10.23;;;12.10;99.90;;;;;;5112326;28;20416;-72
2021/09/01 01:44:36;;;;;;;17.60;9.77;;;12.00;99.90;;;;;;5113056;28;20051;-72
2021/09/01 01:47:04;;;;;;;16.77;9.52;;;12.00;99.90;;;;;;5113163;28;20055;-72
2021/09/01 01:49:32;;;;;;;18.63;9.85;;;12.00;99.90;;;;;;5111968;28;20066;-72
2021/09/01 01:51:59;;;;;;;16.27;9.70;;;12.10;99.90;;;;;;5113050;28;20050;-72
2021/09/01 01:54:26;;;;;;;17.95;9.93;;;12.10;99.90;;;;;;5112426;28;20040;-73
2021/09/01 01:56:53;;;;;;;18.38;9.82;;;12.10;99.90;;;;;;5112115;28;20078;-72
2021/09/01 01:59:20;;;;;;;14.02;9.20;;;12.00;99.90;;;;;;5112343;28;20050;-72
2021/09/01 02:01:49;;;;;;;16.58;9.88;;;12.00;99.90;;;;;;5112971;28;20442;-71
2021/09/01 02:04:16;;;;;;;19.23;10.63;;;11.90;99.90;;;;;;5112614;28;20092;-71
2021/09/01 02:06:43;;;;;;;21.05;9.60;;;11.80;99.90;;;;;;5112575;28;20047;-72
2021/09/01 02:09:10;;;;;;;17.85;10.23;;;11.90;99.90;;;;;;5112025;28;20044;-72
2021/09/01 02:11:37;;;;;;;21.33;11.70;;;11.90;99.90;;;;;;5112779;28;20100;-71
2021/09/01 02:14:05;;;;;;;15.93;9.70;;;11.80;99.90;;;;;;5113108;28;20051;-72
2021/09/01 02:16:32;;;;;;;16.73;10.27;;;11.90;99.90;;;;;;5112983;28;20044;-71
2021/09/01 02:19:00;;;;;;;17.98;10.25;;;11.90;99.90;;;;;;5111741;28;20055;-71
2021/09/01 02:21:27;;;;;;;15.95;9.27;;;11.90;99.90;;;;;;5112408;28;20109;-71
2021/09/01 02:23:54;;;;;;;15.43;9.60;;;11.90;99.90;;;;;;5112408;28;20071;-71
2021/09/01 02:26:21;;;;;;;17.17;9.73;;;11.80;99.90;;;;;;5112248;28;20107;-72
2021/09/01 02:28:48;;;;;;;20.08;10.07;;;11.90;99.90;;;;;;5112008;28;20055;-73
2021/09/01 02:31:15;;;;;;;16.05;9.90;;;12.00;99.90;;;;;;5112620;28;20445;-71
2021/09/01 02:33:42;;;;;;;16.60;9.80;;;12.00;99.90;;;;;;5112550;28;20052;-74
2021/09/01 02:36:11;;;;;;;16.85;9.15;;;12.10;99.90;;;;;;5112342;28;20073;-72
2021/09/01 02:38:41;;;;;;;16.83;10.00;;;12.10;99.90;;;;;;5111893;28;20048;-72
2021/09/01 02:41:08;;;;;;;13.93;9.27;;;12.10;99.90;;;;;;5112149;28;20340;-72
2021/09/01 02:43:36;;;;;;;17.00;9.38;;;12.10;99.90;;;;;;5114166;28;20051;-72
2021/09/01 02:46:03;;;;;;;16.63;9.80;;;12.10;99.90;;;;;;5115319;28;20100;-72
2021/09/01 02:48:30;;;;;;;39.45;11.88;;;12.10;99.90;;;;;;5115369;28;20104;-72
2021/09/01 02:50:57;;;;;;;134.02;18.88;;;12.20;99.90;;;;;;5116194;28;20055;-72
2021/09/01 02:53:25;;;;;;;56.42;15.63;;;12.20;99.90;;;;;;5116057;28;20059;-71
2021/09/01 02:55:52;;;;;;;165.77;19.80;;;12.30;99.90;;;;;;5115834;28;20085;-71
2021/09/01 02:58:19;;;;;;;66.22;15.25;;;12.30;99.90;;;;;;5115002;28;20105;-71
2021/09/01 03:00:46;;;;;;;242.18;26.17;;;12.30;99.90;;;;;;5115753;28;20089;-71
2021/09/01 03:03:13;;;;;;;170.23;22.90;;;12.30;99.90;;;;;;5116116;28;20047;-73
2021/09/01 03:05:40;;;;;;;280.98;29.55;;;12.30;99.90;;;;;;5116549;28;20052;-71
2021/09/01 03:08:08;;;;;;;70.43;17.05;;;12.20;99.90;;;;;;5115409;28;20510;-71
2021/09/01 03:10:36;;;;;;;117.05;19.77;;;12.20;99.90;;;;;;5116709;28;20059;-71
2021/09/01 03:13:03;;;;;;;58.05;14.85;;;12.40;99.90;;;;;;5116404;28;20044;-72
2021/09/01 03:15:31;;;;;;;147.23;21.83;;;12.30;99.90;;;;;;5115823;28;20092;-72
2021/09/01 03:17:58;;;;;;;72.43;15.45;;;12.30;99.90;;;;;;5114917;28;20050;-73
2021/09/01 03:20:25;;;;;;;84.53;14.75;;;12.30;99.90;;;;;;5115414;28;20055;-72
2021/09/01 03:22:52;;;;;;;32.17;11.80;;;12.30;99.90;;;;;;5115785;28;20055;-72
2021/09/01 03:25:19;;;;;;;76.93;14.98;;;12.30;99.90;;;;;;5115397;28;20048;-73
2021/09/01 03:27:48;;;;;;;127.85;16.33;;;12.30;99.90;;;;;;5114654;28;20094;-71
2021/09/01 03:30:15;;;;;;;71.55;14.50;;;12.30;99.90;;;;;;5115348;28;20116;-72
2021/09/01 03:32:42;;;;;;;145.55;17.67;;;12.30;99.90;;;;;;5115428;28;20563;-72
2021/09/01 03:35:10;;;;;;;134.70;19.48;;;12.20;99.90;;;;;;5115775;28;20048;-72
2021/09/01 03:37:37;;;;;;;130.40;17.73;;;12.10;99.90;;;;;;5115273;28;20043;-71
2021/09/01 03:40:05;;;;;;;107.93;14.63;;;12.20;99.90;;;;;;5116173;28;20452;-72
2021/09/01 03:42:32;;;;;;;113.32;16.98;;;12.20;99.90;;;;;;5115952;28;20047;-74
2021/09/01 03:45:00;;;;;;;74.85;14.25;;;12.10;99.90;;;;;;5116321;28;20081;-72
2021/09/01 03:47:27;;;;;;;94.55;16.02;;;12.10;99.90;;;;;;5114691;28;20484;-73
2021/09/01 03:49:55;;;;;;;239.32;19.33;;;12.10;99.90;;;;;;5115318;28;20051;-73
2021/09/01 03:52:22;;;;;;;67.47;15.40;;;12.00;99.90;;;;;;5115092;28;20044;-72
2021/09/01 03:54:48;;;;;;;78.00;15.05;;;12.00;99.90;;;;;;5114890;28;20051;-72
2021/09/01 03:57:15;;;;;;;58.42;14.18;;;12.10;99.90;;;;;;5114854;28;20507;-72
2021/09/01 03:59:42;;;;;;;283.73;21.85;;;12.10;99.90;;;;;;5114243;28;20453;-72
2021/09/01 04:02:11;;;;;;;185.73;21.60;;;12.10;99.90;;;;;;5114946;28;20063;-72
2021/09/01 04:04:38;;;;;;;121.35;20.98;;;12.10;99.90;;;;;;5114996;28;20047;-72
2021/09/01 04:07:05;;;;;;;125.18;17.00;;;12.00;99.90;;;;;;5114719;28;20051;-72
2021/09/01 04:09:33;;;;;;;194.00;18.55;;;12.00;99.90;;;;;;5114078;28;20108;-73
2021/09/01 04:12:00;;;;;;;160.10;18.55;;;11.90;99.90;;;;;;5114652;28;20416;-71
2021/09/01 04:14:27;;;;;;;40.40;13.50;;;12.00;99.90;;;;;;5113814;28;20051;-72
2021/09/01 04:16:54;;;;;;;58.15;14.95;;;12.10;99.90;;;;;;5114213;28;20048;-72
2021/09/01 04:19:22;;;;;;;55.72;13.48;;;12.20;99.90;;;;;;5113988;28;20109;-71
2021/09/01 04:21:49;;;;;;;65.85;14.48;;;12.20;99.90;;;;;;5113807;28;20488;-72
2021/09/01 04:24:16;;;;;;;112.63;15.88;;;12.20;99.90;;;;;;5113629;28;20051;-72
2021/09/01 04:26:43;;;;;;;119.78;15.40;;;12.20;99.90;;;;;;5113571;28;20051;-73
2021/09/01 04:29:10;;;;;;;49.65;12.63;;;12.10;99.90;;;;;;5113405;28;20051;-73
2021/09/01 04:31:37;;;;;;;60.17;12.77;;;12.20;99.90;;;;;;5114045;28;20492;-72
2021/09/01 04:34:04;;;;;;;241.43;22.48;;;12.20;99.90;;;;;;5114049;28;20052;-73
2021/09/01 04:36:33;;;;;;;38.63;11.75;;;12.10;99.90;;;;;;5113538;28;20047;-72
2021/09/01 04:39:00;;;;;;;61.67;12.48;;;12.10;99.90;;;;;;5112901;28;20093;-72
2021/09/01 04:41:27;;;;;;;67.35;13.27;;;12.10;99.90;;;;;;5113698;28;20097;-72
2021/09/01 04:43:55;;;;;;;74.25;13.88;;;12.10;99.90;;;;;;5114269;28;20059;-71
2021/09/01 04:46:22;;;;;;;114.57;13.85;;;12.10;99.90;;;;;;5114514;28;20043;-71
2021/09/01 04:48:49;;;;;;;138.00;13.90;;;12.00;99.90;;;;;;5112670;28;20449;-72
2021/09/01 04:51:16;;;;;;;69.28;12.55;;;12.00;99.90;;;;;;5114057;28;20059;-71
2021/09/01 04:53:44;;;;;;;80.47;13.70;;;12.10;99.90;;;;;;5113413;28;20043;-71
2021/09/01 04:56:11;;;;;;;114.22;15.32;;;12.10;99.90;;;;;;5113688;28;20467;-71
2021/09/01 04:58:38;;;;;;;146.02;16.67;;;12.00;99.90;;;;;;5112525;28;20048;-73
2021/09/01 05:01:05;;;;;;;153.52;18.92;;;11.90;99.90;;;;;;5113479;28;20047;-72
2021/09/01 05:03:32;;;;;;;72.20;13.00;;;11.90;99.90;;;;;;5113389;28;20044;-72
2021/09/01 05:05:59;;;;;;;95.88;13.32;;;11.80;99.90;;;;;;5112887;28;20093;-73
2021/09/01 05:08:26;;;;;;;77.60;14.30;;;12.00;99.90;;;;;;5112442;28;20380;-70
2021/09/01 05:10:55;;;;;;;122.70;14.48;;;12.10;99.90;;;;;;5113321;28;20052;-72
2021/09/01 05:13:22;;;;;;;279.75;20.13;;;12.10;99.90;;;;;;5113328;28;20051;-71
2021/09/01 05:15:49;;;;;;;43.83;10.07;;;12.10;99.90;;;;;;5112911;28;20408;-71
2021/09/01 05:18:16;;;;;;;71.50;12.40;;;12.10;99.90;;;;;;5112610;28;20047;-72
2021/09/01 05:20:44;;;;;;;56.58;11.20;;;12.10;99.90;;;;;;5113323;28;20118;-73
2021/09/01 05:23:11;;;;;;;43.22;11.63;;;12.00;99.90;;;;;;5112826;28;20104;-71
2021/09/01 05:25:49;;;;;;;110.57;13.90;;;12.10;99.90;;;;;;5113392;28;20116;-71
2021/09/01 05:28:18;;;;;;;58.08;13.63;;;12.00;99.90;;;;;;5112861;28;20051;-73
2021/09/01 05:30:48;;;;;;;131.13;13.80;;;12.00;99.90;;;;;;5113116;28;20104;-72
2021/09/01 05:33:17;;;;;;;61.72;11.70;;;12.10;99.90;;;;;;5113363;28;20442;-72
2021/09/01 05:35:45;;;;;;;220.95;19.58;;;12.10;99.90;;;;;;5112754;28;20393;-72
2021/09/01 05:38:12;;;;;;;151.45;15.98;;;12.10;99.90;;;;;;5112286;28;20047;-72
2021/09/01 05:40:41;;;;;;;47.08;12.27;;;12.00;99.90;;;;;;5113273;28;20102;-72
2021/09/01 05:43:10;;;;;;;51.28;12.05;;;12.00;99.90;;;;;;5112946;28;20047;-72
2021/09/01 05:45:40;;;;;;;96.10;12.50;;;12.10;99.90;;;;;;5113350;28;20128;-72
2021/09/01 05:48:08;;;;;;;188.38;14.57;;;12.10;99.90;;;;;;5111679;28;20047;-71
2021/09/01 05:50:36;;;;;;;41.33;9.88;;;12.10;99.90;;;;;;5112410;28;20051;-73
2021/09/01 05:53:03;;;;;;;66.15;10.52;;;12.20;99.90;;;;;;5113049;28;20051;-73
2021/09/01 05:55:35;;;;;;;143.48;14.57;;;12.20;99.90;;;;;;5112900;28;20051;-71
2021/09/01 05:58:03;;;;;;;80.85;11.43;;;12.20;99.90;;;;;;5112064;28;20043;-71
2021/09/01 06:00:33;;;;;;;44.58;9.55;;;12.20;99.90;;;;;;5112396;28;20051;-71
2021/09/01 06:03:07;;;;;;;135.88;15.98;;;12.20;99.90;;;;;;5113048;28;20116;-72
2021/09/01 06:05:38;;;;;;;93.22;12.00;;;12.00;99.90;;;;;;5112440;28;20068;-73
2021/09/01 06:08:08;;;;;;;149.10;13.30;;;12.10;99.90;;;;;;5112257;28;20047;-72
2021/09/01 06:10:37;;;;;;;49.28;9.38;;;12.10;99.90;;;;;;5112731;28;20497;-71
2021/09/01 06:13:06;;;;;;;115.18;13.00;;;12.20;99.90;;;;;;5112087;28;20089;-71
2021/09/01 06:15:34;;;;;;;60.00;9.77;;;12.40;99.90;;;;;;5112537;28;20048;-72
2021/09/01 06:18:03;;;;;;;131.27;13.10;;;12.50;99.90;;;;;;5112836;28;20044;-72
2021/09/01 06:20:31;;;;;;;237.00;16.88;;;12.50;99.90;;;;;;5116603;28;20557;-72
2021/09/01 06:22:58;;;;;;;90.75;10.40;;;12.50;99.90;;;;;;5116666;28;20457;-72
2021/09/01 06:25:26;;;;;;;52.75;9.98;;;12.60;99.90;;;;;;5116508;28;20051;-72
2021/09/01 06:27:54;;;;;;;51.75;9.73;;;12.60;99.90;;;;;;5115079;28;20474;-71
2021/09/01 06:30:22;;;;;;;261.02;20.77;;;12.70;99.90;;;;;;5116050;28;20495;-73
2021/09/01 06:32:49;;;;;;;64.38;10.77;;;12.60;99.90;;;;;;5115880;28;20056;-72
2021/09/01 06:35:17;;;;;;;56.85;10.43;;;12.60;99.90;;;;;;5116023;28;20117;-72
2021/09/01 06:37:45;;;;;;;104.80;11.52;;;12.60;99.90;;;;;;5115650;28;20096;-72
2021/09/01 06:40:16;;;;;;;145.55;15.50;;;12.70;99.90;;;;;;5115689;28;20047;-72
2021/09/01 06:42:43;;;;;;;45.08;10.70;;;12.70;99.90;;;;;;5116148;28;20105;-72
2021/09/01 06:45:11;;;;;;;24.05;8.77;;;12.80;99.90;;;;;;5116258;28;20116;-72
2021/09/01 06:47:40;;;;;;;34.15;8.75;;;12.90;99.90;;;;;;5115392;28;20063;-72
2021/09/01 06:50:08;;;;;;;30.80;9.57;;;12.90;99.90;;;;;;5115564;28;20496;-72
2021/09/01 06:52:38;;;;;;;26.58;8.50;;;13.10;99.90;;;;;;5115521;28;20048;-72
2021/09/01 06:55:05;;;;;;;19.00;8.50;;;13.20;99.90;;;;;;5116396;28;20085;-72
2021/09/01 06:57:34;;;;;;;16.98;8.80;;;13.30;99.90;;;;;;5115125;28;20051;-73
2021/09/01 07:00:01;;;;;;;23.38;8.75;;;13.40;99.90;;;;;;5115689;28;20055;-71
2021/09/01 07:02:28;;;;;;;119.28;12.25;;;13.50;99.90;;;;;;5115826;28;20051;-72
2021/09/01 07:04:55;;;;;;;103.18;12.35;;;13.50;99.90;;;;;;5115392;28;20098;-73
2021/09/01 07:07:22;;;;;;;24.17;8.80;;;13.40;99.90;;;;;;5115257;28;20131;-72
2021/09/01 07:09:50;;;;;;;24.45;8.32;;;13.50;99.90;;;;;;5114936;28;20063;-73
2021/09/01 07:12:17;;;;;;;27.67;9.15;;;13.60;99.90;;;;;;5115182;28;20047;-72
2021/09/01 07:14:44;;;;;;;33.05;9.27;;;13.70;99.90;;;;;;5115521;28;20491;-71
2021/09/01 07:17:11;;;;;;;14.95;7.93;;;13.60;99.90;;;;;;5114807;28;20051;-72
2021/09/01 07:19:38;;;;;;;15.77;9.18;;;13.60;99.90;;;;;;5114864;28;20402;-72
2021/09/01 07:22:05;;;;;;;13.60;8.10;;;13.70;99.90;;;;;;5114912;28;20048;-72
2021/09/01 07:24:32;;;;;;;17.85;7.97;;;13.90;99.90;;;;;;5115033;28;20043;-71
2021/09/01 07:27:01;;;;;;;16.67;7.57;;;13.90;99.90;;;;;;5115065;28;20047;-71
2021/09/01 07:29:28;;;;;;;13.90;7.75;;;14.10;99.90;;;;;;5113803;28;20043;-72
2021/09/01 07:31:55;;;;;;;14.73;8.80;;;14.30;99.90;;;;;;5115028;28;20047;-72
2021/09/01 07:34:22;;;;;;;14.88;8.60;;;14.30;99.90;;;;;;5114892;28;20047;-73
2021/09/01 07:36:49;;;;;;;13.02;8.32;;;14.40;99.90;;;;;;5114983;28;20047;-72
2021/09/01 07:39:16;;;;;;;14.70;7.63;;;14.60;99.90;;;;;;5114633;28;20095;-73
2021/09/01 07:41:43;;;;;;;14.55;8.73;;;14.70;99.90;;;;;;5114036;28;20487;-70
2021/09/01 07:44:12;;;;;;;20.83;8.98;;;14.90;99.90;;;;;;5113846;28;20108;-72
2021/09/01 07:46:39;;;;;;;14.27;8.23;;;14.90;99.90;;;;;;5113855;28;20051;-71
2021/09/01 07:49:06;;;;;;;13.75;8.70;;;15.10;99.90;;;;;;5112747;28;20059;-71
2021/09/01 07:51:33;;;;;;;21.88;8.57;;;15.50;99.90;;;;;;5113281;28;20047;-72
2021/09/01 07:54:00;;;;;;;12.18;8.07;;;15.70;99.90;;;;;;5113203;28;20564;-71
2021/09/01 07:56:27;;;;;;;17.38;8.52;;;15.60;99.90;;;;;;5113983;28;20610;-72
2021/09/01 07:58:54;;;;;;;15.15;8.10;;;16.00;99.90;;;;;;5112932;28;20121;-72
2021/09/01 08:01:22;;;;;;;14.25;8.43;;;16.20;99.90;;;;;;5113059;28;20047;-72
2021/09/01 08:03:49;;;;;;;13.30;7.82;;;16.50;99.90;;;;;;5112821;28;20059;-72
2021/09/01 08:06:16;;;;;;;13.02;7.82;;;16.80;99.90;;;;;;5112920;28;20424;-71
2021/09/01 08:08:43;;;;;;;13.25;7.60;;;17.00;99.90;;;;;;5112275;28;20056;-74
2021/09/01 08:11:10;;;;;;;15.13;8.13;;;17.00;99.90;;;;;;5112910;28;20051;-73
2021/09/01 08:13:37;;;;;;;15.15;7.90;;;16.90;99.90;;;;;;5112725;28;20063;-73
2021/09/01 08:16:05;;;;;;;12.48;7.78;;;17.10;99.90;;;;;;5112433;28;20048;-73
2021/09/01 08:18:33;;;;;;;13.43;8.02;;;17.10;99.90;;;;;;5111904;28;20043;-73
2021/09/01 08:21:00;;;;;;;13.07;7.25;;;17.00;99.90;;;;;;5112550;28;20093;-71
2021/09/01 08:23:27;;;;;;;15.30;8.75;;;17.10;99.90;;;;;;5112639;28;20051;-72
2021/09/01 08:25:54;;;;;;;12.30;7.70;;;17.10;99.90;;;;;;5112768;28;20047;-71
2021/09/01 08:28:21;;;;;;;12.32;7.10;;;17.30;99.90;;;;;;5111563;28;20048;-71
2021/09/01 08:30:48;;;;;;;13.93;7.32;;;17.50;99.90;;;;;;5112024;28;20051;-71
2021/09/01 08:33:15;;;;;;;11.70;7.20;;;17.90;99.90;;;;;;5112128;28;20055;-70
2021/09/01 08:35:43;;;;;;;12.20;6.80;;;18.50;99.90;;;;;;5111439;28;20552;-72
2021/09/01 08:38:10;;;;;;;10.63;5.85;;;19.20;99.90;;;;;;5110191;28;20055;-71
2021/09/01 08:40:37;;;;;;;10.60;6.07;;;20.20;99.90;;;;;;5109763;28;20096;-71
2021/09/01 08:43:05;;;;;;;8.63;4.90;;;20.80;99.90;;;;;;5110461;28;20104;-69
2021/09/01 08:45:32;;;;;;;10.48;5.57;;;21.70;99.90;;;;;;5110682;28;20485;-70
2021/09/01 08:47:59;;;;;;;10.70;5.47;;;22.50;99.90;;;;;;5110136;28;20090;-70
2021/09/01 08:50:29;;;;;;;7.75;5.05;;;23.40;99.90;;;;;;5111000;28;20070;-70
2021/09/01 08:52:57;;;;;;;11.93;5.10;;;23.90;99.90;;;;;;5110494;28;20101;-70
2021/09/01 08:55:25;;;;;;;9.98;4.95;;;24.80;99.90;;;;;;5110673;28;20063;-70
2021/09/01 08:57:52;;;;;;;8.65;5.25;;;25.30;99.90;;;;;;5109936;28;20047;-70
2021/09/01 09:00:19;;;;;;;9.68;5.22;;;25.50;99.90;;;;;;5110383;28;20047;-70
2021/09/01 09:02:57;;;;;;;7.05;4.85;;;26.20;99.90;;;;;;5110222;28;20039;-70
2021/09/01 09:05:34;;;;;;;10.55;4.70;;;26.90;99.90;;;;;;5110149;28;20146;-70
2021/09/01 09:08:04;;;;;;;9.05;5.22;;;27.20;99.90;;;;;;5109697;28;20044;-70
2021/09/01 09:10:34;;;;;;;7.85;4.65;;;27.20;99.90;;;;;;5110568;28;20043;-70
2021/09/01 09:13:06;;;;;;;11.13;4.57;;;27.80;99.90;;;;;;5110324;28;20384;-70
2021/09/01 09:15:33;;;;;;;9.40;5.15;;;28.10;99.90;;;;;;5110136;28;20047;-70
2021/09/01 19:55:07;;;;;;;12.75;7.00;;;16.80;99.90;;;;;;5091068;28;20562;-78
2021/09/01 19:57:34;;;;;;;13.50;7.25;;;16.70;99.90;;;;;;5092072;28;20423;-73
2021/09/01 20:00:05;;;;;;;11.10;6.78;;;16.70;99.90;;;;;;5080732;28;20083;-74
2021/09/01 20:02:33;;;;;;;13.85;7.25;;;16.60;99.90;;;;;;5071996;28;20157;-74
2021/09/01 20:05:00;;;;;;;11.68;6.90;;;16.60;99.90;;;;;;5072317;28;20048;-75
2021/09/01 20:07:27;;;;;;;16.48;8.10;;;16.50;99.90;;;;;;5071473;28;20049;-73
2021/09/01 20:09:54;;;;;;;13.98;7.18;;;16.50;99.90;;;;;;5072224;28;20106;-74
2021/09/01 20:12:22;;;;;;;12.13;7.57;;;16.50;99.90;;;;;;5072303;28;20052;-74
2021/09/01 20:14:50;;;;;;;14.30;8.07;;;16.50;99.90;;;;;;5072596;28;20102;-73
2021/09/01 20:17:17;;;;;;;12.18;7.45;;;16.40;99.90;;;;;;5071818;28;20045;-73
2021/09/01 20:19:44;;;;;;;13.50;7.80;;;16.40;99.90;;;;;;5071805;28;20080;-73
2021/09/01 20:22:13;;;;;;;14.95;8.13;;;16.40;99.90;;;;;;5071757;28;20056;-74
2021/09/01 20:24:40;;;;;;;12.95;8.05;;;16.30;99.90;;;;;;5072225;28;20405;-75
2021/09/01 20:27:08;;;;;;;14.60;7.93;;;16.30;99.90;;;;;;5071356;28;20048;-73
2021/09/01 20:29:38;;;;;;;14.40;7.68;;;16.20;99.90;;;;;;5070831;28;20048;-74
2021/09/01 20:32:07;;;;;;;14.73;7.88;;;16.10;99.90;;;;;;5071563;28;20053;-73
2021/09/01 20:34:34;;;;;;;14.23;8.50;;;16.10;99.90;;;;;;5071400;28;20049;-73
2021/09/01 20:37:01;;;;;;;11.95;7.68;;;16.20;99.90;;;;;;5070186;28;20401;-73
2021/09/01 20:39:29;;;;;;;18.05;6.97;;;16.20;99.90;;;;;;5070339;28;20220;-73
2021/09/01 20:41:58;;;;;;;12.73;7.85;;;16.10;99.90;;;;;;5071291;28;20076;-73
2021/09/01 20:44:35;;;;;;;15.73;8.45;;;16.00;99.90;;;;;;5071833;28;20079;-75
2021/09/01 20:47:04;;;;;;;12.43;7.47;;;16.10;99.90;;;;;;5070851;28;20045;-73
2021/09/01 20:49:34;;;;;;;11.45;7.68;;;16.00;99.90;;;;;;5070785;28;20049;-74
2021/09/01 20:52:06;;;;;;;14.80;7.50;;;15.90;99.90;;;;;;5071451;28;20493;-73
2021/09/01 20:54:35;;;;;;;16.17;8.25;;;15.80;99.90;;;;;;5071776;28;20048;-73
2021/09/01 20:57:05;;;;;;;14.20;8.20;;;15.80;99.90;;;;;;5071508;28;20052;-74
2021/09/01 20:59:36;;;;;;;15.55;7.95;;;15.70;99.90;;;;;;5070432;28;20470;-74
2021/09/01 21:02:05;;;;;;;14.45;7.38;;;15.80;99.90;;;;;;5058223;28;20044;-74
2021/09/01 21:04:34;;;;;;;14.48;8.38;;;15.90;99.90;;;;;;5062211;28;20048;-73
2021/09/01 21:07:01;;;;;;;12.48;7.85;;;15.90;99.90;;;;;;5062802;28;20098;-74
2021/09/01 21:09:28;;;;;;;14.00;8.02;;;15.80;99.90;;;;;;5068910;28;20056;-73
2021/09/01 21:11:56;;;;;;;13.05;8.68;;;15.80;99.90;;;;;;5068963;28;20134;-74
2021/09/01 21:14:23;;;;;;;17.77;9.10;;;15.70;99.90;;;;;;5068760;28;20088;-74
2021/09/01 21:16:52;;;;;;;11.80;7.68;;;15.40;99.90;;;;;;5068810;28;20078;-73
2021/09/01 21:19:28;;;;;;;14.38;8.27;;;15.40;99.90;;;;;;5069007;28;20045;-77
2021/09/01 21:21:58;;;;;;;14.00;7.72;;;15.40;99.90;;;;;;5070725;28;20053;-73
2021/09/01 21:24:28;;;;;;;12.90;8.02;;;15.50;99.90;;;;;;5069814;28;20057;-74
2021/09/01 21:26:56;;;;;;;15.85;8.13;;;15.60;99.90;;;;;;5060718;28;20048;-73
2021/09/01 21:29:24;;;;;;;12.68;7.97;;;15.50;99.90;;;;;;5065611;28;20040;-73
2021/09/01 21:31:52;;;;;;;14.43;8.43;;;15.50;99.90;;;;;;5067464;28;20420;-74
2021/09/01 21:34:24;;;;;;;15.50;8.23;;;15.60;99.90;;;;;;5065156;28;20486;-74
2021/09/01 21:36:52;;;;;;;15.27;8.35;;;15.30;99.90;;;;;;5059081;28;20096;-75
2021/09/01 21:39:21;;;;;;;13.82;8.30;;;15.30;99.90;;;;;;5055642;28;20111;-73
2021/09/01 21:41:49;;;;;;;17.77;8.52;;;15.30;99.90;;;;;;5058942;28;20437;-74
2021/09/01 21:44:18;;;;;;;13.68;9.05;;;15.10;99.90;;;;;;5056313;28;20052;-74
2021/09/01 21:46:45;;;;;;;13.38;8.63;;;15.10;99.90;;;;;;5065250;28;20599;-74
2021/09/01 21:49:13;;;;;;;14.15;9.00;;;15.20;99.90;;;;;;5068646;28;20044;-74
2021/09/01 21:51:43;;;;;;;13.45;8.40;;;15.10;99.90;;;;;;5069131;28;20062;-74
2021/09/01 21:54:10;;;;;;;13.45;8.30;;;15.00;99.90;;;;;;5066397;28;20053;-74
2021/09/01 21:56:38;;;;;;;14.38;8.48;;;15.00;99.90;;;;;;5069309;28;20055;-74
2021/09/01 21:59:06;;;;;;;16.60;9.07;;;15.10;99.90;;;;;;5065806;28;20044;-76
2021/09/01 22:01:33;;;;;;;16.05;9.18;;;15.10;99.90;;;;;;5059374;28;20131;-75
2021/09/01 22:04:01;;;;;;;15.23;9.75;;;15.00;99.90;;;;;;5055965;28;20048;-77
2021/09/01 22:06:29;;;;;;;17.15;9.00;;;14.90;99.90;;;;;;5044250;28;20463;-77
2021/09/01 22:08:59;;;;;;;13.82;8.95;;;15.00;99.90;;;;;;5046030;28;20055;-77
2021/09/01 22:11:26;;;;;;;15.23;8.90;;;15.00;99.90;;;;;;5050693;28;20060;-77
2021/09/01 22:13:53;;;;;;;14.70;8.80;;;15.00;99.90;;;;;;5055684;28;20052;-78
2021/09/01 22:16:21;;;;;;;15.05;8.32;;;15.00;99.90;;;;;;5048804;28;20048;-79
2021/09/01 22:18:48;;;;;;;16.88;9.38;;;15.00;99.90;;;;;;5047215;28;20570;-78
2021/09/01 22:21:16;;;;;;;14.80;8.90;;;14.90;99.90;;;;;;5058253;28;20033;-76
2021/09/01 22:23:43;;;;;;;17.98;9.63;;;14.80;99.90;;;;;;5058019;28;20040;-76
2021/09/01 22:26:12;;;;;;;13.82;8.73;;;14.70;99.90;;;;;;5058058;28;20449;-77
2021/09/01 22:28:39;;;;;;;15.85;9.55;;;14.60;99.90;;;;;;5057116;28;20052;-77
2021/09/01 22:31:06;;;;;;;16.55;10.13;;;14.70;99.90;;;;;;5062723;28;20041;-76
2021/09/01 22:33:33;;;;;;;19.27;9.60;;;14.60;99.90;;;;;;5057287;28;20048;-75
2021/09/01 22:36:00;;;;;;;17.80;9.73;;;14.60;99.90;;;;;;5061719;28;20045;-76
2021/09/01 22:38:28;;;;;;;16.45;9.95;;;14.60;99.90;;;;;;5065019;28;20094;-76
2021/09/01 22:40:55;;;;;;;15.85;8.77;;;14.60;99.90;;;;;;5059143;28;20492;-75
2021/09/01 22:43:23;;;;;;;18.52;9.27;;;14.50;99.90;;;;;;5054773;28;20087;-77
2021/09/01 22:45:50;;;;;;;15.55;9.05;;;14.50;99.90;;;;;;5052608;28;20045;-77
2021/09/01 22:48:18;;;;;;;12.77;8.07;;;14.40;99.90;;;;;;5051155;28;20797;-75
2021/09/01 22:50:45;;;;;;;14.93;8.63;;;14.40;99.90;;;;;;5057297;28;20040;-75
2021/09/01 22:53:12;;;;;;;18.90;9.93;;;14.40;99.90;;;;;;5055732;28;20052;-78
2021/09/01 22:55:40;;;;;;;13.65;8.38;;;14.50;99.90;;;;;;5062540;28;20068;-77
2021/09/01 22:58:07;;;;;;;14.15;9.13;;;14.40;99.90;;;;;;5056096;28;20047;-77
2021/09/01 23:00:36;;;;;;;14.60;8.68;;;14.40;99.90;;;;;;5056129;28;20079;-79
2021/09/01 23:03:03;;;;;;;14.35;8.07;;;14.40;99.90;;;;;;5057560;28;20041;-77
2021/09/01 23:05:31;;;;;;;12.38;8.38;;;14.30;99.90;;;;;;5060495;28;20064;-76
2021/09/01 23:07:58;;;;;;;18.30;9.60;;;14.30;99.90;;;;;;5060600;28;20061;-75
2021/09/01 23:10:25;;;;;;;15.98;8.52;;;14.30;99.90;;;;;;5059880;28;20053;-77